To NAV CANADA Home Page Login to a new session Search on AWWS site Disclaimer Vers la page française équivalente Tips FAQ What's new on the site To the Forecasts and Observations / NOTAM section To "File a Flight Plan" website Publications and other links Update of the User's profile FIC Telephone Numbers My Weather Data Folder Route Weather Data Regional Weather Data Local Weather Data To the Forecasts and Observations / NOTAM section
Request Generated 12/12/2018 at 02:49:42 UTC . Weather information available at that time is displayed.

METAR/TAF

OTTAWA/MACDONALD-CARTIER INTL/ON    

METAR CYOW 120200Z 02005KT 8SM -SN OVC027 M07/M09 A2998 RMK SC8 SLP161=
SPECI CYOW 120136Z 04005KT 8SM -SN OVC029 M07/M09 A2997 RMK SC8 SLP159=
METAR CYOW 120100Z 03006KT 4SM -SN SCT032 BKN037 OVC070 M07/M09 A2998 RMK SC3SC3AC2 SLP160=
SPECI CYOW 120043Z 03006KT 3SM -SN BKN017 OVC033 M07/M09 A2997 RMK SC5SC3 SLP159=
METAR CYOW 120000Z CCA 04006KT 10SM -SN OVC043 M08/M09 A2997 RMK SC8 /S02/ SLP158=
METAR CYOW 120000Z 04006KT 10SM -SN OVC043 M08/M09 A2997 RMK SC8 SLP158=

TAF CYOW 120238Z 1203/1224 02006KT P6SM OVC025 TEMPO 1203/1205 5SM
-SN OVC020
FM120500 36006KT P6SM SCT012 BKN025 TEMPO 1205/1209 BKN012 OVC025
BECMG 1207/1209 32005KT
FM121500 03007KT P6SM SCT020
BECMG 1223/1224 09008KT
RMK NXT FCST BY 120600Z=

OTTAWA/GATINEAU/QC    

METAR CYND 120200Z 32002KT 15SM -SN BKN035 OVC075 M07/M09 A2999 RMK SC6AC2 LAST STFD OBS/NEXT 121200 UTC SLP163=
METAR CYND 120100Z 00000KT 12SM -SN OVC035 M07/M09 A2999 RMK SC8 SLP162=
METAR CYND 120000Z 00000KT 10SM -SN OVC030 M07/M08 A2999 RMK SC8 SLP161=

*** REMARK        : Forecast period has ended; this was the last TAF issued
*** REMARQUE : La période de prévision est échue; ceci était le dernier TAF qui a été émis
TAF CYND 112340Z 1200/1202 05005KT P6SM -SN SCT012 OVC030 TEMPO
1200/1202 3SM -SN BKN012 OVC030
RMK NXT FCST WILL BE ISSUED AT 121345Z=

MONTREAL/PIERRE-ELLIOTT-TRUDEAU INTL/QC    

SPECI CYUL 120220Z 01008KT 3SM -SN BKN018 OVC023 M08/M10 A2999 RMK SC6SC2 SLP158=
METAR CYUL 120200Z 01008KT 2 1/2SM -SN OVC018 M08/M10 A2999 RMK SC8 SLP159=
SPECI CYUL 120139Z 02009KT 2 1/2SM -SN OVC025 M08/M10 A2999 RMK SC8 SLP159=
METAR CYUL 120100Z 02008KT 4SM -SN FEW018 OVC024 M08/M10 A2999 RMK SC2SC6 SLP159=
METAR CYUL 120000Z 02007KT 3SM -SN FEW009 OVC026 M08/M09 A2999 RMK SF1SC7 SLP158=

TAF CYUL 120238Z 1203/1224 01008KT 21/2SM -SN OVC015 TEMPO 1203/1204
P6SM -SN OVC030 PROB30 1203/1204 BKN008
FM120400 01008KT 3SM -SN BR BKN008 OVC012 TEMPO 1204/1207 P6SM
NSW SCT008 OVC015
FM120700 01008KT P6SM -SN BKN015 OVC025
FM121000 36008KT P6SM BKN025
FM121400 02010KT P6SM FEW030
BECMG 1220/1222 11005KT
RMK NXT FCST BY 120600Z=

MONTREAL INTL (MIRABEL)/QC    

METAR CYMX 120200Z 03005KT 340V080 4SM -SN OVC014 M09/M11 A2999 RMK SC8 SLP165=
METAR CYMX 120100Z 04005KT 350V080 5SM -SN OVC018 M09/M11 A2999 RMK SC8 SLP165=
METAR CYMX 120000Z VRB04KT 5SM -SN OVC017 M09/M11 A2999 RMK SC8 SLP165=

TAF CYMX 112340Z 1200/1224 04005KT 21/2SM -SN OVC020 TEMPO 1200/1201
6SM -SN OVC030
FM120100 04005KT P6SM -SN OVC030 TEMPO 1201/1204 4SM -SN OVC020
PROB30 1201/1203 21/2SM -SN
FM120400 05005KT P6SM BKN025 OVC040 TEMPO 1204/1206 5SM -SN
BKN020 OVC040
FM120600 VRB03KT P6SM -SN BKN020 OVC040
FM120900 VRB03KT P6SM BKN030
FM121300 VRB03KT P6SM FEW030
RMK NXT FCST BY 120600Z=

KINGSTON/ON    

METAR CYGK 120200Z 01002KT 5SM -SN OVC075 M03/M03 A2996 RMK AC8 SLP153=
METAR CYGK 120100Z 32002KT 4SM -SN OVC070 M03/M03 A2996 RMK AC8 SLP151=
METAR CYGK 120000Z 34004KT 3SM -SN SCT030 OVC070 M02/M03 A2995 RMK SC3AC5 SLP148=

TAF CYGK 120138Z 1202/1204 34005KT P6SM -SHSN SCT030 OVC070 TEMPO
1202/1204 4SM -SHSN
RMK NXT FCST WILL BE ISSUED AT 121245Z=

PETAWAWA/ON    

METAR CYWA 120200Z AUTO 32002KT 8SM FEW010 OVC016 M05/M06 A2998 RMK SLP162=
SPECI CYWA 120158Z AUTO 32003KT 7SM SCT010 OVC016 OVC027 M05/M06 A2998=
SPECI CYWA 120136Z AUTO 00000KT 7SM BKN009 OVC014 M05/M06 A2998=
SPECI CYWA 120101Z AUTO 00000KT 7SM FEW008 OVC014 M05/M06 A2997=
METAR CYWA 120100Z AUTO 00000KT 7SM BKN008 OVC014 OVC080 M05/M06 A2997 RMK SLP160=
SPECI CYWA 120011Z AUTO 00000KT 4SM BKN008 OVC014 OVC031 OVC059 M05/M06 A2996=
SPECI CYWA 120005Z AUTO 21002KT 4SM FEW008 OVC014 OVC031 OVC059 M05/M06 A2996=
METAR CYWA 120000Z AUTO 00000KT 3SM -SN FEW008 OVC014 OVC031 OVC059 M05/M06 A2996 RMK SLP155=

TAF CYWA 112330Z 1200/1212 VRB03KT 2SM -SHSN BR BKN009 OVC025 TEMPO
1200/1206 6SM -SHSN SCT009 OVC025 PROB30 1202/1206 2SM -FZDZ BR
FM120600 VRB03KT P6SM FEW015 BKN025 TEMPO 1206/1212 5SM -SN BR
BKN015 OVC025
RMK FCST BASED ON AUTO OBS. NXT FCST BY 120600Z=
Your time UTC time
Weather data provided by Environment Canada and NAV CANADA